Thunder radar more information blitzortung!


Radar de pluja more information rain snow radar


Visita la nostra xarxa de llocs de meteo:

Template documentation
and downloads

And another site



No particular awareness of the weather is required.    There are no Weather-warnings

Pagina Historial Weather Underground text

Diari Resum Juliol 7, 2017 Unitats:  Mètric    Imperial   Tant
« Previous Dia
SegĂźent Dia »
Diari Setmana Mensual Anual Personalitzada
  Maxima: Minima: Media:
Temperatura: 33.3 °C 20.4 °C 29.2 °C
Punt de rosada: 17.6 °C 9.3 °C 12.5 °C
Humitat: 69 % 26 % 38 %
Wind Speed: 20.4 km/h 0.0 km/h 8.6 km/h
RĂ fegues de vent: 20.4 km/h - -
Vent:- - East
Pression baro: 1017.8 hPa 1012.8 hPa -
Precipitacions: 0.0 mm    
Historical Graphs
 
 
Dades de taula per Juliol 7, 2017
Temps Temperatura Punt de rosada Pression baro Vent Wind Speed RĂ fegues de vent Humitat Rainfall Rate (Hourly)
00:04 24.3 °C 17.6 °C 1016.8 hPa NNE 5.0 km/h 5.0 km/h 66 % 0.0 mm
00:05 21.4 °C 15.5 °C 1014.8 hPa NE 1.6 km/h 4.8 km/h 69 % 0.0 mm
00:15 21.2 °C 15.3 °C 1015.8 hPa Calm     69 % 0.0 mm
00:25 21.2 °C 15.3 °C 1015.8 hPa Calm     69 % 0.0 mm
00:35 21.1 °C 15.2 °C 1015.8 hPa Calm     69 % 0.0 mm
00:45 21.0 °C 14.9 °C 1015.8 hPa Calm   3.2 km/h 68 % 0.0 mm
00:55 21.1 °C 14.7 °C 1015.8 hPa Calm   1.6 km/h 67 % 0.0 mm
01:05 21.0 °C 14.6 °C 1016.8 hPa Calm   1.6 km/h 67 % 0.0 mm
01:15 20.8 °C 14.7 °C 1016.8 hPa WNW 1.6 km/h 1.6 km/h 68 % 0.0 mm
01:25 20.6 °C 14.5 °C 1016.8 hPa West 1.6 km/h 3.2 km/h 68 % 0.0 mm
01:35 20.5 °C 14.4 °C 1016.8 hPa Calm   1.6 km/h 68 % 0.0 mm
01:45 20.5 °C 14.4 °C 1017.8 hPa Calm     68 % 0.0 mm
01:55 20.4 °C 14.3 °C 1017.8 hPa West 3.2 km/h 3.2 km/h 68 % 0.0 mm
02:05 20.4 °C 14.3 °C 1017.8 hPa Calm   3.2 km/h 68 % 0.0 mm
02:15 20.8 °C 14.9 °C 1016.8 hPa WSW 1.6 km/h 3.2 km/h 69 % 0.0 mm
02:25 21.2 °C 15.1 °C 1016.8 hPa NE 1.6 km/h 3.2 km/h 68 % 0.0 mm
02:35 21.4 °C 15.0 °C 1017.8 hPa NE 1.6 km/h 3.2 km/h 67 % 0.0 mm
02:45 21.9 °C 15.3 °C 1017.8 hPa NE 1.6 km/h 4.8 km/h 66 % 0.0 mm
02:55 22.2 °C 15.3 °C 1017.8 hPa NE 1.6 km/h 1.6 km/h 65 % 0.0 mm
03:05 23.0 °C 15.6 °C 1017.8 hPa ESE 4.8 km/h 4.8 km/h 63 % 0.0 mm
03:15 23.0 °C 15.1 °C 1016.8 hPa East 4.8 km/h 4.8 km/h 61 % 0.0 mm
03:25 22.9 °C 15.0 °C 1016.8 hPa NE 4.8 km/h 4.8 km/h 61 % 0.0 mm
03:35 22.9 °C 14.7 °C 1016.8 hPa NNE 8.0 km/h 8.0 km/h 60 % 0.0 mm
03:45 22.9 °C 14.4 °C 1016.8 hPa NNE 4.8 km/h 8.0 km/h 59 % 0.0 mm
03:55 23.0 °C 14.6 °C 1016.8 hPa NE 3.2 km/h 4.8 km/h 59 % 0.0 mm
04:05 23.8 °C 15.1 °C 1017.8 hPa NNE 4.8 km/h 6.4 km/h 58 % 0.0 mm
04:15 24.2 °C 14.9 °C 1016.8 hPa NNE 4.8 km/h 6.4 km/h 56 % 0.0 mm
04:25 25.0 °C 15.1 °C 1016.8 hPa ENE 1.6 km/h 6.4 km/h 54 % 0.0 mm
04:35 25.7 °C 15.4 °C 1016.8 hPa East 1.6 km/h 4.8 km/h 53 % 0.0 mm
04:45 26.4 °C 15.8 °C 1016.8 hPa ENE 3.2 km/h 6.4 km/h 52 % 0.0 mm
04:55 26.9 °C 15.9 °C 1016.8 hPa East 4.8 km/h 6.4 km/h 51 % 0.0 mm
05:05 27.4 °C 15.4 °C 1017.8 hPa ESE 4.8 km/h 6.4 km/h 48 % 0.0 mm
05:15 27.3 °C 15.3 °C 1016.8 hPa East 4.8 km/h 6.4 km/h 48 % 0.0 mm
05:25 27.7 °C 15.1 °C 1016.8 hPa ENE 3.2 km/h 6.4 km/h 46 % 0.0 mm
05:35 28.3 °C 15.2 °C 1016.8 hPa ENE 3.2 km/h 4.8 km/h 45 % 0.0 mm
10:36 28.2 °C 15.5 °C 1016.8 hPa NNE 5.6 km/h 5.6 km/h 46 % 0.0 mm
10:41 28.8 °C 15.7 °C 1016.8 hPa NE 5.6 km/h 5.6 km/h 45 % 0.0 mm
10:46 28.8 °C 15.7 °C 1016.8 hPa East 5.6 km/h 5.6 km/h 45 % 0.0 mm
10:51 29.2 °C 15.7 °C 1016.8 hPa ENE 3.7 km/h 3.7 km/h 44 % 0.0 mm
10:56 29.4 °C 15.9 °C 1016.8 hPa NE 5.6 km/h 5.6 km/h 44 % 0.0 mm
11:01 29.9 °C 15.9 °C 1016.8 hPa ENE 3.7 km/h 3.7 km/h 43 % 0.0 mm
11:02 29.9 °C 15.9 °C 1016.8 hPa ENE 3.7 km/h 3.7 km/h 43 % 0.0 mm
11:07 30.1 °C 15.4 °C 1016.8 hPa SSE 9.3 km/h 9.3 km/h 41 % 0.0 mm
11:12 30.0 °C 14.9 °C 1016.8 hPa ENE 13.0 km/h 13.0 km/h 40 % 0.0 mm
11:17 30.4 °C 15.3 °C 1016.8 hPa East 9.7 km/h 9.7 km/h 40 % 0.0 mm
11:22 30.5 °C 15.4 °C 1016.8 hPa ENE 9.7 km/h 9.7 km/h 40 % 0.0 mm
11:27 30.5 °C 15.4 °C 1015.8 hPa ESE 9.3 km/h 9.3 km/h 40 % 0.0 mm
11:32 31.1 °C 15.1 °C 1015.8 hPa ENE 14.0 km/h 14.0 km/h 38 % 0.0 mm
11:37 30.9 °C 14.5 °C 1015.8 hPa ESE 14.8 km/h 14.8 km/h 37 % 0.0 mm
11:42 31.0 °C 14.2 °C 1016.8 hPa ESE 13.0 km/h 13.0 km/h 36 % 0.0 mm
11:47 31.4 °C 14.9 °C 1016.8 hPa SE 5.8 km/h 6.1 km/h 37 % 0.0 mm
11:52 31.4 °C 14.6 °C 1016.8 hPa East 9.5 km/h 9.5 km/h 36 % 0.0 mm
11:57 31.7 °C 14.8 °C 1016.8 hPa NE 9.3 km/h 9.7 km/h 36 % 0.0 mm
12:02 31.8 °C 14.4 °C 1016.8 hPa East 10.3 km/h 10.3 km/h 35 % 0.0 mm
12:07 31.4 °C 13.7 °C 1016.8 hPa ESE 11.1 km/h 11.1 km/h 34 % 0.0 mm
12:12 31.4 °C 13.7 °C 1016.8 hPa East 14.8 km/h 14.8 km/h 34 % 0.0 mm
12:17 31.7 °C 13.0 °C 1016.8 hPa ESE 13.0 km/h 13.0 km/h 32 % 0.0 mm
12:22 31.7 °C 12.5 °C 1016.8 hPa ESE 16.1 km/h 16.1 km/h 31 % 0.0 mm
12:27 32.1 °C 13.3 °C 1015.8 hPa East 11.1 km/h 11.1 km/h 32 % 0.0 mm
12:32 32.4 °C 13.6 °C 1015.8 hPa ESE 13.0 km/h 13.0 km/h 32 % 0.0 mm
12:37 32.3 °C 13.5 °C 1015.8 hPa East 13.0 km/h 13.0 km/h 32 % 0.0 mm
12:42 32.6 °C 13.8 °C 1015.8 hPa ESE 14.5 km/h 14.5 km/h 32 % 0.0 mm
12:47 32.7 °C 13.8 °C 1015.8 hPa ENE 14.8 km/h 14.8 km/h 32 % 0.0 mm
12:52 32.7 °C 13.3 °C 1015.8 hPa East 16.7 km/h 16.7 km/h 31 % 0.0 mm
12:57 32.8 °C 12.9 °C 1015.8 hPa ENE 20.4 km/h 20.4 km/h 30 % 0.0 mm
13:02 32.9 °C 13.1 °C 1015.8 hPa East 17.5 km/h 17.5 km/h 30 % 0.0 mm
13:07 32.8 °C 13.4 °C 1015.8 hPa ESE 14.8 km/h 14.8 km/h 31 % 0.0 mm
13:12 32.7 °C 13.3 °C 1015.8 hPa SE 13.0 km/h 13.0 km/h 31 % 0.0 mm
13:17 32.3 °C 13.0 °C 1015.8 hPa ESE 16.1 km/h 16.1 km/h 31 % 0.0 mm
13:22 32.7 °C 13.3 °C 1015.8 hPa SE 15.1 km/h 15.1 km/h 31 % 0.0 mm
13:27 32.5 °C 12.7 °C 1015.8 hPa NE 20.4 km/h 20.4 km/h 30 % 0.0 mm
13:32 32.5 °C 12.7 °C 1015.8 hPa East 16.7 km/h 16.7 km/h 30 % 0.0 mm
13:37 32.6 °C 13.3 °C 1015.8 hPa ESE 7.4 km/h 7.6 km/h 31 % 0.0 mm
13:42 32.4 °C 12.6 °C 1015.8 hPa SSE 18.5 km/h 18.5 km/h 30 % 0.0 mm
13:47 32.5 °C 12.2 °C 1015.8 hPa NE 14.8 km/h 14.8 km/h 29 % 0.0 mm
13:52 32.6 °C 12.3 °C 1015.8 hPa ESE 10.0 km/h 10.0 km/h 29 % 0.0 mm
13:57 32.6 °C 12.3 °C 1015.8 hPa ESE 16.7 km/h 16.7 km/h 29 % 0.0 mm
14:02 32.8 °C 12.4 °C 1015.8 hPa SE 11.1 km/h 11.1 km/h 29 % 0.0 mm
14:07 32.7 °C 11.8 °C 1015.8 hPa ENE 13.0 km/h 13.0 km/h 28 % 0.0 mm
14:12 33.0 °C 12.1 °C 1015.8 hPa ENE 14.8 km/h 14.8 km/h 28 % 0.0 mm
14:17 33.2 °C 12.2 °C 1015.8 hPa ENE 14.8 km/h 14.8 km/h 28 % 0.0 mm
14:22 33.1 °C 12.2 °C 1015.8 hPa East 11.9 km/h 11.9 km/h 28 % 0.0 mm
14:27 33.2 °C 12.2 °C 1015.8 hPa East 18.5 km/h 18.5 km/h 28 % 0.0 mm
14:32 32.8 °C 11.9 °C 1015.8 hPa East 13.0 km/h 13.0 km/h 28 % 0.0 mm
14:37 32.7 °C 11.8 °C 1015.8 hPa ESE 14.8 km/h 14.8 km/h 28 % 0.0 mm
14:42 32.7 °C 12.3 °C 1015.8 hPa SE 7.4 km/h 7.4 km/h 29 % 0.0 mm
14:47 33.1 °C 12.2 °C 1015.8 hPa ESE 5.0 km/h 5.0 km/h 28 % 0.0 mm
14:52 32.2 °C 11.4 °C 1015.8 hPa SSE 9.3 km/h 9.3 km/h 28 % 0.0 mm
14:57 32.7 °C 12.3 °C 1015.8 hPa ESE 11.1 km/h 11.1 km/h 29 % 0.0 mm
15:02 33.0 °C 12.6 °C 1015.8 hPa ESE 9.7 km/h 9.7 km/h 29 % 0.0 mm
15:07 33.3 °C 12.8 °C 1015.8 hPa SSE 11.1 km/h 11.1 km/h 29 % 0.0 mm
15:12 32.9 °C 12.5 °C 1016.8 hPa SE 14.8 km/h 14.8 km/h 29 % 0.0 mm
15:17 32.9 °C 12.5 °C 1016.8 hPa ESE 16.7 km/h 16.7 km/h 29 % 0.0 mm
15:19 32.3 °C 12.0 °C 1016.8 hPa SSE 13.0 km/h 13.0 km/h 29 % 0.0 mm
15:24 32.2 °C 11.4 °C 1015.8 hPa East 13.0 km/h 13.0 km/h 28 % 0.0 mm
15:25 32.2 °C 11.4 °C 1015.8 hPa SSE 9.3 km/h 9.3 km/h 28 % 0.0 mm
15:30 32.3 °C 11.4 °C 1015.8 hPa ESE 14.8 km/h 14.8 km/h 28 % 0.0 mm
15:35 32.1 °C 11.3 °C 1015.8 hPa NE 9.3 km/h 9.3 km/h 28 % 0.0 mm
15:40 32.2 °C 11.9 °C 1015.8 hPa ENE 9.3 km/h 9.3 km/h 29 % 0.0 mm
15:45 31.9 °C 11.7 °C 1015.8 hPa SSE 16.7 km/h 16.7 km/h 29 % 0.0 mm
15:50 32.3 °C 12.0 °C 1015.8 hPa South 5.6 km/h 5.6 km/h 29 % 0.0 mm
15:55 32.4 °C 12.1 °C 1015.8 hPa SE 7.4 km/h 7.4 km/h 29 % 0.0 mm
16:00 32.5 °C 12.2 °C 1015.8 hPa South 13.0 km/h 13.0 km/h 29 % 0.0 mm
16:05 32.6 °C 12.3 °C 1015.8 hPa South 14.8 km/h 14.8 km/h 29 % 0.0 mm
16:10 32.9 °C 12.5 °C 1015.8 hPa East 9.3 km/h 9.3 km/h 29 % 0.0 mm
16:15 33.0 °C 12.1 °C 1015.8 hPa SSE 16.7 km/h 16.7 km/h 28 % 0.0 mm
16:20 32.6 °C 11.7 °C 1015.8 hPa SSE 18.5 km/h 18.5 km/h 28 % 0.0 mm
16:25 32.8 °C 11.9 °C 1015.8 hPa ESE 14.8 km/h 14.8 km/h 28 % 0.0 mm
16:30 32.3 °C 10.9 °C 1015.8 hPa ESE 13.0 km/h 13.0 km/h 27 % 0.0 mm
16:35 32.4 °C 11.0 °C 1015.8 hPa SE 10.3 km/h 10.3 km/h 27 % 0.0 mm
16:40 32.4 °C 10.4 °C 1015.8 hPa ESE 20.4 km/h 20.4 km/h 26 % 0.0 mm
16:45 32.4 °C 10.4 °C 1015.8 hPa NE 11.1 km/h 11.1 km/h 26 % 0.0 mm
16:50 32.1 °C 10.2 °C 1015.8 hPa ESE 13.0 km/h 13.0 km/h 26 % 0.0 mm
16:55 32.2 °C 10.3 °C 1015.8 hPa South 9.3 km/h 9.3 km/h 26 % 0.0 mm
17:00 32.6 °C 10.6 °C 1015.8 hPa SSE 7.4 km/h 7.4 km/h 26 % 0.0 mm
17:05 32.5 °C 10.5 °C 1015.8 hPa SSE 11.1 km/h 11.1 km/h 26 % 0.0 mm
17:10 32.5 °C 10.5 °C 1015.8 hPa South 12.2 km/h 12.2 km/h 26 % 0.0 mm
17:15 32.6 °C 10.6 °C 1015.8 hPa SE 11.1 km/h 11.1 km/h 26 % 0.0 mm
17:20 32.6 °C 10.6 °C 1015.8 hPa ESE 7.4 km/h 7.4 km/h 26 % 0.0 mm
17:25 32.0 °C 10.1 °C 1015.8 hPa South 9.3 km/h 9.3 km/h 26 % 0.0 mm
17:30 31.9 °C 10.6 °C 1015.8 hPa South 5.6 km/h 5.6 km/h 27 % 0.0 mm
17:35 31.8 °C 10.5 °C 1015.8 hPa East 9.5 km/h 9.5 km/h 27 % 0.0 mm
17:40 31.8 °C 10.5 °C 1015.8 hPa SSE 9.3 km/h 9.3 km/h 27 % 0.0 mm
17:45 31.8 °C 10.5 °C 1015.8 hPa ESE 5.6 km/h 5.6 km/h 27 % 0.0 mm
17:50 31.4 °C 10.2 °C 1015.8 hPa ENE 9.3 km/h 9.3 km/h 27 % 0.0 mm
17:55 31.3 °C 10.1 °C 1015.8 hPa ESE 14.8 km/h 14.8 km/h 27 % 0.0 mm
18:00 31.3 °C 10.6 °C 1015.8 hPa ESE 9.3 km/h 9.3 km/h 28 % 0.0 mm
18:05 31.4 °C 10.2 °C 1015.8 hPa SSE 9.7 km/h 9.7 km/h 27 % 0.0 mm
18:10 31.6 °C 10.3 °C 1015.8 hPa ESE 3.7 km/h 5.3 km/h 27 % 0.0 mm
18:15 31.4 °C 10.2 °C 1015.8 hPa SE 11.1 km/h 11.1 km/h 27 % 0.0 mm
18:20 31.6 °C 10.3 °C 1015.8 hPa SSE 5.6 km/h 5.6 km/h 27 % 0.0 mm
18:25 31.6 °C 10.9 °C 1015.8 hPa South 7.4 km/h 7.4 km/h 28 % 0.0 mm
18:30 31.4 °C 10.2 °C 1015.8 hPa SSW 9.3 km/h 9.3 km/h 27 % 0.0 mm
18:35 31.6 °C 10.3 °C 1015.8 hPa SE 7.4 km/h 7.4 km/h 27 % 0.0 mm
18:40 31.5 °C 10.2 °C 1015.8 hPa SSE 5.6 km/h 5.6 km/h 27 % 0.0 mm
18:45 31.4 °C 10.2 °C 1015.8 hPa East 9.3 km/h 9.3 km/h 27 % 0.0 mm
18:50 31.2 °C 10.0 °C 1015.8 hPa ESE 9.3 km/h 9.3 km/h 27 % 0.0 mm
18:55 31.1 °C 9.9 °C 1015.8 hPa NE 5.6 km/h 5.6 km/h 27 % 0.0 mm
19:00 31.2 °C 10.0 °C 1015.8 hPa ENE 7.4 km/h 7.4 km/h 27 % 0.0 mm
19:05 31.1 °C 9.3 °C 1015.8 hPa East 9.3 km/h 9.3 km/h 26 % 0.0 mm
19:10 30.9 °C 9.7 °C 1014.8 hPa East 7.4 km/h 7.4 km/h 27 % 0.0 mm
19:15 31.0 °C 9.8 °C 1014.8 hPa ENE 5.6 km/h 5.6 km/h 27 % 0.0 mm
19:20 30.9 °C 9.7 °C 1014.8 hPa NE 9.3 km/h 9.3 km/h 27 % 0.0 mm
19:25 30.7 °C 10.1 °C 1014.8 hPa NNE 9.3 km/h 9.3 km/h 28 % 0.0 mm
19:30 30.6 °C 10.0 °C 1014.8 hPa East 7.4 km/h 7.4 km/h 28 % 0.0 mm
19:35 30.7 °C 10.1 °C 1014.8 hPa ESE 9.3 km/h 9.3 km/h 28 % 0.0 mm
19:40 30.5 °C 9.9 °C 1014.8 hPa East 11.1 km/h 11.1 km/h 28 % 0.0 mm
19:45 30.4 °C 9.8 °C 1014.8 hPa ESE 9.3 km/h 9.3 km/h 28 % 0.0 mm
19:50 30.3 °C 9.8 °C 1014.8 hPa ESE 9.3 km/h 9.3 km/h 28 % 0.0 mm
19:55 30.2 °C 10.2 °C 1014.8 hPa East 12.2 km/h 12.2 km/h 29 % 0.0 mm
20:00 30.2 °C 10.2 °C 1014.8 hPa ESE 7.4 km/h 7.4 km/h 29 % 0.0 mm
20:05 30.0 °C 10.0 °C 1014.8 hPa ESE 9.3 km/h 9.3 km/h 29 % 0.0 mm
20:10 30.0 °C 10.0 °C 1014.8 hPa ENE 7.4 km/h 7.4 km/h 29 % 0.0 mm
20:15 29.8 °C 9.8 °C 1014.8 hPa ESE 9.3 km/h 9.3 km/h 29 % 0.0 mm
20:20 29.8 °C 9.8 °C 1014.8 hPa ESE 11.1 km/h 11.1 km/h 29 % 0.0 mm
20:25 29.7 °C 9.8 °C 1014.8 hPa ESE 9.3 km/h 9.3 km/h 29 % 0.0 mm
20:30 29.5 °C 9.6 °C 1014.8 hPa ESE 9.3 km/h 9.3 km/h 29 % 0.0 mm
20:35 29.4 °C 10.0 °C 1014.8 hPa ESE 6.4 km/h 6.4 km/h 30 % 0.0 mm
20:40 29.3 °C 9.9 °C 1013.8 hPa SSE 5.8 km/h 5.8 km/h 30 % 0.0 mm
20:45 29.2 °C 9.8 °C 1013.8 hPa NE 3.7 km/h 3.7 km/h 30 % 0.0 mm
20:50 29.0 °C 9.7 °C 1013.8 hPa East 9.3 km/h 9.3 km/h 30 % 0.0 mm
20:55 28.9 °C 9.6 °C 1013.8 hPa ENE 3.7 km/h 3.7 km/h 30 % 0.0 mm
21:00 28.9 °C 9.6 °C 1013.8 hPa ESE 7.4 km/h 7.4 km/h 30 % 0.0 mm
21:05 28.8 °C 10.0 °C 1013.8 hPa East 3.9 km/h 3.9 km/h 31 % 0.0 mm
21:10 28.7 °C 9.9 °C 1013.8 hPa East 7.4 km/h 7.4 km/h 31 % 0.0 mm
21:15 28.6 °C 9.8 °C 1013.8 hPa ESE 9.3 km/h 9.3 km/h 31 % 0.0 mm
21:20 28.5 °C 9.7 °C 1013.8 hPa East 5.6 km/h 5.6 km/h 31 % 0.0 mm
21:25 28.4 °C 10.1 °C 1013.8 hPa NE 5.6 km/h 5.6 km/h 32 % 0.0 mm
21:30 28.2 °C 10.4 °C 1013.8 hPa East 5.8 km/h 5.8 km/h 33 % 0.0 mm
21:35 28.0 °C 10.7 °C 1013.8 hPa ENE 7.4 km/h 7.4 km/h 34 % 0.0 mm
21:40 27.9 °C 11.0 °C 1013.8 hPa ENE 7.4 km/h 7.4 km/h 35 % 0.0 mm
21:45 27.7 °C 11.3 °C 1013.8 hPa ESE 5.6 km/h 5.6 km/h 36 % 0.0 mm
21:50 27.4 °C 11.8 °C 1013.8 hPa ENE 7.4 km/h 7.4 km/h 38 % 0.0 mm
21:55 27.2 °C 12.1 °C 1013.8 hPa ENE 7.4 km/h 7.4 km/h 39 % 0.0 mm
22:00 27.1 °C 12.7 °C 1013.8 hPa East 5.8 km/h 5.8 km/h 41 % 0.0 mm
22:05 27.0 °C 13.0 °C 1013.8 hPa ENE 5.6 km/h 5.6 km/h 42 % 0.0 mm
22:10 26.8 °C 13.9 °C 1012.8 hPa NE 5.6 km/h 5.6 km/h 45 % 0.0 mm
22:15 26.6 °C 13.7 °C 1012.8 hPa North 3.7 km/h 3.7 km/h 45 % 0.0 mm
22:20 26.5 °C 13.6 °C 1012.8 hPa NE 5.6 km/h 5.6 km/h 45 % 0.0 mm
22:25 26.4 °C 13.8 °C 1013.8 hPa NNE 5.6 km/h 5.6 km/h 46 % 0.0 mm
22:30 26.2 °C 13.7 °C 1013.8 hPa ENE 5.6 km/h 5.6 km/h 46 % 0.0 mm
22:35 26.2 °C 14.0 °C 1013.8 hPa NNE 5.6 km/h 5.6 km/h 47 % 0.0 mm
22:40 26.1 °C 13.9 °C 1013.8 hPa NNE 9.3 km/h 9.3 km/h 47 % 0.0 mm
22:45 25.9 °C 14.1 °C 1013.8 hPa NNE 9.3 km/h 9.3 km/h 48 % 0.0 mm
22:50 25.8 °C 13.9 °C 1013.8 hPa NNW 9.3 km/h 9.3 km/h 48 % 0.0 mm
22:55 25.6 °C 13.8 °C 1014.8 hPa NNE 9.3 km/h 9.3 km/h 48 % 0.0 mm
23:00 25.6 °C 13.8 °C 1014.8 hPa NE 5.6 km/h 5.6 km/h 48 % 0.0 mm
23:05 25.5 °C 13.1 °C 1014.8 hPa ENE 9.3 km/h 9.3 km/h 46 % 0.0 mm
23:10 25.5 °C 12.7 °C 1013.8 hPa NNE 10.0 km/h 10.0 km/h 45 % 0.0 mm
23:15 25.5 °C 12.3 °C 1013.8 hPa North 9.3 km/h 9.3 km/h 44 % 0.0 mm
23:20 25.4 °C 11.9 °C 1013.8 hPa ESE 7.4 km/h 7.4 km/h 43 % 0.0 mm
23:25 25.5 °C 11.7 °C 1012.8 hPa East 7.4 km/h 7.4 km/h 42 % 0.0 mm
23:30 25.4 °C 11.6 °C 1012.8 hPa ENE 9.3 km/h 9.3 km/h 42 % 0.0 mm
23:35 25.4 °C 11.6 °C 1012.8 hPa ESE 11.1 km/h 11.1 km/h 42 % 0.0 mm
23:40 25.4 °C 11.6 °C 1013.8 hPa East 9.3 km/h 9.3 km/h 42 % 0.0 mm
23:45 25.3 °C 11.4 °C 1013.8 hPa ENE 5.0 km/h 5.0 km/h 42 % 0.0 mm
23:50 25.3 °C 11.4 °C 1013.8 hPa ENE 3.7 km/h 3.7 km/h 42 % 0.0 mm
23:55 25.3 °C 11.4 °C 1013.8 hPa East 3.7 km/h 3.7 km/h 42 % 0.0 mm
Meteo Sesrovires
Elogis d' Weather Underground - 3.5 mb

Guio original per  Jim McMurry - jmcmurry@mwt.net Adaptat per a la plantilla per  Wim van der Kuil - Leuven-Template.eu

Trobareu la nostra informacio del temps tambe a:

Weather Underground

AWEKAS